Station: Renmark Airport

  Atmospheric Gas Attenuation - ITU Rec 676-11   --------------- db/100km ---------------
Date Time Temp RH % AH g/m3 Dew Point Wind Direction Speed kph Gust kph Barometer mB Rainfall Since 9am 24GHz 47GHz 76GHz 122GHz 134GHz 241GHz
17 01:50 0.9 87 4.49 -1 0 0 1022.5 0 11.3 23.1 29.2 75.8 57.2 192.2
17 01:40 0.9 87 4.49 -1 0 0 1022.6 0 11.3 23.1 29.2 75.8 57.2 192.2
17 01:30 1.2 87 4.58 -0.7 0 0 1022.6 0 11.5 23.2 29.4 76.5 58.2 195.7
17 01:20 0.7 86 4.38 -1.4 0 0 1022.7 0 11.0 23.0 28.8 74.8 55.9 187.5
17 01:10 0.8 86 4.41 -1.3 0 0 1022.7 0 11.1 23.0 28.9 75.0 56.2 188.7
17 01:00 1.1 85 4.45 -1.1 0 0 1022.7 0 11.2 23.0 28.9 75.2 56.5 189.8
17 00:50 1.4 86 4.59 -0.7 0 0 1022.7 0 11.5 23.1 29.4 76.4 58.2 195.7
17 00:40 1.4 85 4.54 -0.8 0 0 1022.7 0 11.4 23.0 29.2 75.9 57.5 193.3
17 00:30 2 85 4.73 -0.2 0 0 1022.8 0 11.8 23.2 29.7 77.3 59.6 200.7
17 00:20 2.3 85 4.83 0 0 0 1022.8 0 12.0 23.3 30.0 78.1 60.7 204.7
17 00:10 1.9 85 4.7 -0.3 0 0 1022.8 0 11.7 23.2 29.7 77.1 59.3 199.6
17 00:00 1.7 85 4.63 -0.5 0 0 1023 0 11.6 23.1 29.5 76.6 58.5 196.8
16 23:50 2 84 4.67 -0.4 0 0 1023 0 11.6 23.1 29.5 76.7 58.8 198.0
16 23:40 2 83 4.62 -0.6 0 0 1023 0 11.5 23.0 29.3 76.2 58.2 195.6
16 23:30 2.2 83 4.68 -0.4 0 0 1023 0 11.6 23.1 29.5 76.6 58.8 197.9
16 23:20 2.7 84 4.9 0.3 0 0 1023 0 12.1 23.3 30.2 78.5 61.4 206.9
16 23:10 3 84 5 0.6 0 0 1022.9 0 12.3 23.4 30.5 79.3 62.4 210.8
16 23:00 2.7 83 4.84 0.1 0 0 1023.2 0 12.0 23.2 29.9 77.9 60.6 204.2
16 22:50 2.8 82 4.81 0 0 0 1023.2 0 11.9 23.1 29.8 77.4 60.1 202.5
16 22:40 2.9 81 4.79 0 0 0 1023.2 0 11.9 23.1 29.7 77.1 59.7 201.3
16 22:30 2.9 80 4.73 -0.2 0 0 1023.2 0 11.7 23.0 29.4 76.5 59.0 198.5
16 22:20 3.5 81 4.98 0.6 0 0 1023.3 0 12.2 23.2 30.2 78.6 61.8 208.6
16 22:10 3.7 81 5.05 0.7 0 0 1023.3 0 12.4 23.3 30.4 79.1 62.6 211.3
16 22:00 4.1 80 5.12 1 0 0 1023.3 0 12.5 23.3 30.5 79.5 63.2 213.5
16 21:50 3.9 79 4.99 0.6 0 0 1023.4 0 12.3 23.2 30.1 78.3 61.6 208.0
16 21:40 4 79 5.03 0.7 0 0 1023.4 0 12.3 23.2 30.2 78.6 62.1 209.6
16 21:30 4.3 78 5.06 0.8 6 7 1023.4 0 12.4 23.2 30.2 78.6 62.2 210.2
16 21:20 4.5 78 5.13 1 6 7 1023.4 0 12.5 23.2 30.4 79.2 63.0 212.9
16 21:10 4.8 78 5.23 1.3 6 6 1023.4 0 12.7 23.3 30.7 79.9 64.1 216.7
16 21:00 4.8 77 5.17 1.1 0 6 1023.4 0 12.6 23.2 30.5 79.3 63.3 213.9
16 20:50 4.7 75 5 0.7 0 0 1023.4 0 12.2 23.0 29.8 77.6 61.1 206.4
16 20:40 5.1 75 5.13 1 0 0 1023.5 0 12.5 23.1 30.2 78.6 62.5 211.3
16 20:30 5.4 74 5.17 1.1 0 0 1023.5 0 12.6 23.1 30.3 78.7 62.8 212.3
16 20:20 5.5 74 5.2 1.2 0 0 1023.4 0 12.6 23.1 30.3 78.9 63.1 213.4
16 20:10 5.8 73 5.23 1.3 0 0 1023.3 0 12.7 23.0 30.3 78.9 63.2 214.0
16 20:00 6 73 5.3 1.5 0 0 1023.2 0 12.8 23.1 30.5 79.4 64.0 216.6
16 19:50 6.5 72 5.4 1.8 0 0 1023.2 0 13.0 23.1 30.7 80.0 64.9 219.8
16 19:40 6.7 69 5.25 1.4 0 0 1023.2 0 12.7 22.8 30.1 78.2 62.8 212.4
16 19:30 7.1 70 5.46 2 0 0 1023.2 0 13.1 23.1 30.7 80.0 65.1 220.8
16 19:20 7.5 68 5.45 2 0 0 1023.1 0 13.1 23.0 30.5 79.5 64.7 219.3
16 19:10 7.5 68 5.45 2 0 0 1023 0 13.1 23.0 30.5 79.5 64.7 219.2
16 19:00 7.8 67 5.47 2.1 0 0 1023 0 13.1 22.9 30.5 79.4 64.7 219.3
16 18:50 8.1 65 5.41 1.9 0 0 1022.9 0 13.0 22.7 30.2 78.5 63.7 215.8
16 18:40 9.1 61 5.41 2 6 6 1022.8 0 13.0 22.5 29.8 77.5 62.8 213.1
16 18:30 10.2 60 5.71 2.8 4 9 1022.7 0 13.6 22.7 30.5 79.4 65.7 223.2
16 18:20 11.5 56 5.79 3 0 0 1022.7 0 13.7 22.5 30.3 78.9 65.6 223.1
16 18:10 11.6 57 5.93 3.4 0 0 1022.6 0 14.0 22.6 30.8 80.2 67.2 228.9
16 18:00 11.2 57 5.78 3 9 11 1022.6 0 13.7 22.5 30.4 79.1 65.7 223.5
16 17:50 12.5 54 5.94 3.5 11 11 1022.5 0 14.0 22.4 30.5 79.4 66.6 226.7
16 17:40 12.4 53 5.79 3.1 9 11 1022.5 0 13.7 22.2 30.0 78.0 64.9 220.6
16 17:30 13.3 51 5.89 3.4 9 13 1022.4 0 13.8 22.2 30.0 78.1 65.3 222.4
16 17:20 14.4 47 5.81 3.2 11 11 1022.4 0 13.6 21.8 29.3 76.3 63.5 216.0
16 17:10 14.4 47 5.81 3.2 9 9 1022.3 0 13.6 21.8 29.3 76.3 63.5 216.0
16 17:00 15.3 45 5.88 3.5 9 11 1022.3 0 13.7 21.7 29.2 76.1 63.6 216.5
16 16:50 15.9 43 5.82 3.4 9 9 1022.3 0 13.6 21.4 28.8 75.0 62.4 212.5
16 16:40 16.5 40 5.62 2.9 11 13 1022.3 0 13.2 21.0 27.9 72.6 59.7 202.8
16 16:30 16.9 39 5.61 2.9 9 11 1022.3 0 13.1 20.9 27.7 72.2 59.2 201.5
16 16:20 17 39 5.64 3 9 9 1022.3 0 13.2 20.9 27.8 72.3 59.5 202.4
16 16:10 17.1 39 5.68 3.1 7 7 1022.4 0 13.3 21.0 27.9 72.6 59.9 203.8
16 16:00 17.1 39 5.68 3.1 11 13 1022.4 0 13.3 21.0 27.9 72.6 59.9 203.8
16 15:50 17.3 38 5.6 2.9 9 13 1022.3 0 13.1 20.8 27.6 71.7 58.8 200.1
16 15:40 17.4 36 5.33 2.2 7 9 1022.3 0 12.5 20.4 26.6 69.2 55.7 189.2
16 15:30 17.2 37 5.42 2.4 9 15 1022.2 0 12.7 20.6 27.0 70.1 56.9 193.2
16 15:20 17.4 37 5.48 2.6 7 9 1022.2 0 12.8 20.6 27.1 70.5 57.4 195.1
16 15:10 17.3 38 5.6 2.9 9 13 1022.2 0 13.1 20.8 27.6 71.7 58.8 200.1
16 15:00 17.4 37 5.48 2.6 11 17 1022.2 0 12.8 20.6 27.1 70.5 57.4 195.1
16 14:50 17.6 37 5.55 2.8 9 11 1022.2 0 13.0 20.7 27.3 71.0 58.1 197.4
16 14:40 17.5 37 5.52 2.7 13 15 1022.2 0 12.9 20.7 27.2 70.8 57.8 196.4
16 14:30 17.8 38 5.77 3.3 9 13 1022.3 0 13.4 20.9 28.0 72.8 60.4 205.6
16 14:20 17.8 37 5.62 2.9 9 11 1022.3 0 13.1 20.7 27.5 71.5 58.7 199.7
16 14:10 17.5 37 5.52 2.7 9 11 1022.3 0 12.9 20.7 27.2 70.8 57.8 196.4
16 14:00 17.5 38 5.66 3 7 11 1022.5 0 13.2 20.9 27.7 72.1 59.4 202.0
16 13:50 17.4 38 5.63 3 11 13 1022.6 0 13.2 20.8 27.7 71.9 59.1 201.1
16 13:40 17.6 37 5.55 2.8 4 6 1022.7 0 13.0 20.7 27.3 71.0 58.1 197.4
16 13:30 17.1 38 5.53 2.7 7 13 1022.7 0 13.0 20.8 27.4 71.3 58.2 197.8
16 13:20 17.3 39 5.75 3.2 7 9 1022.8 0 13.4 21.0 28.1 73.1 60.6 206.1
16 13:10 17.2 40 5.86 3.5 9 13 1022.9 0 13.6 21.2 28.5 74.2 61.9 210.8
16 13:00 16.9 39 5.61 2.9 2 11 1023.1 0 13.1 20.9 27.8 72.2 59.3 201.6
16 12:50 16.5 42 5.9 3.6 6 6 1023.3 0 13.7 21.5 28.9 75.3 62.9 214.3
16 12:40 17 41 5.93 3.7 6 7 1023.4 0 13.8 21.4 28.9 75.1 62.9 214.3
16 12:30 16.4 43 6 3.8 7 11 1023.6 0 14.0 21.6 29.3 76.3 64.2 218.7
16 12:20 16.1 43 5.89 3.5 9 11 1023.8 0 13.7 21.5 29.1 75.6 63.2 215.1
16 12:10 16.3 43 5.97 3.7 6 6 1024 0 13.9 21.6 29.3 76.2 63.9 217.8
16 12:00 16.3 42 5.83 3.4 6 7 1024.2 0 13.6 21.4 28.8 74.9 62.3 212.2
16 11:50 16.3 43 5.97 3.7 6 7 1024.5 0 13.9 21.6 29.3 76.2 64.0 217.9
16 11:40 15.5 44 5.82 3.3 6 7 1024.6 0 13.6 21.6 29.0 75.6 62.9 213.9
16 11:30 15.1 45 5.81 3.3 6 7 1024.8 0 13.6 21.7 29.2 75.9 63.1 214.6
16 11:20 15.6 45 5.98 3.7 0 0 1024.9 0 13.9 21.8 29.6 77.0 64.7 220.3
16 11:10 14.6 47 5.88 3.4 6 7 1024.9 0 13.8 21.9 29.6 77.0 64.3 218.9
16 11:00 14.6 48 6.01 3.7 2 7 1024.9 0 14.0 22.1 30.1 78.3 65.8 224.3
16 10:50 13.7 50 5.92 3.5 0 0 1025 0 13.9 22.2 30.1 78.3 65.5 223.0
16 10:40 13.5 51 5.97 3.6 0 0 1025.1 0 14.0 22.3 30.3 79.0 66.3 225.7
16 10:30 13 53 6.01 3.7 2 7 1025.2 0 14.1 22.5 30.7 79.9 67.2 228.8
16 10:20 12.8 53 5.94 3.5 0 0 1025.2 0 14.0 22.5 30.5 79.4 66.5 226.4
16 10:10 11.9 56 5.93 3.4 2 6 1025.2 0 14.0 22.7 30.8 80.2 67.1 228.5
16 10:00 11.6 58 6.03 3.6 2 6 1025.1 0 14.2 22.9 31.3 81.5 68.6 233.7
16 09:50 10.6 60 5.86 3.2 4 6 1025.1 0 13.9 22.9 31.0 80.8 67.4 229.2
16 09:40 10.3 62 5.94 3.3 4 6 1025.1 0 14.1 23.1 31.4 81.9 68.6 233.5
16 09:30 9.6 66 6.05 3.6 0 0 1025.1 0 14.3 23.4 32.1 83.7 70.6 240.5
16 09:20 8.9 70 6.13 3.7 0 0 1025 0 14.5 23.7 32.7 85.3 72.3 246.3

Last Refresh: 17-Jul-2020 01:59:53

Most of the information presented on this site is sourced from the Bureau of Meteorology.  Copyright in all material sourced from the Bureau of Meteorology resides with the Commonwealth of Australia.